createdAt,value
2022-10-13T00:02:04.385Z,73.76
2022-10-13T00:04:34.884Z,73.77
2022-10-13T00:07:17.271Z,73.84
2022-10-13T00:09:46.209Z,74.00
2022-10-13T00:12:15.703Z,74.04
2022-10-13T00:14:58.540Z,74.23
2022-10-13T00:17:27.506Z,74.23
2022-10-13T00:19:56.506Z,74.25
2022-10-13T00:22:25.383Z,74.17
2022-10-13T00:25:08.114Z,74.20
2022-10-13T00:27:37.611Z,74.36
2022-10-13T00:30:07.523Z,74.51
2022-10-13T00:32:49.872Z,74.77
2022-10-13T00:35:18.844Z,74.76
2022-10-13T00:38:01.286Z,75.08
2022-10-13T00:40:33.410Z,74.88
2022-10-13T00:43:02.532Z,74.81
2022-10-13T00:45:31.192Z,74.68
2022-10-13T00:48:02.961Z,74.91
2022-10-13T00:50:38.228Z,75.24
2022-10-13T00:53:24.973Z,75.38
2022-10-13T00:55:55.305Z,74.98
2022-10-13T00:58:31.570Z,75.02
2022-10-13T01:01:01.212Z,75.54
2022-10-13T01:03:30.262Z,75.44
2022-10-13T01:06:02.774Z,75.10
2022-10-13T01:08:32.144Z,75.14
2022-10-13T01:11:23.037Z,75.03
2022-10-13T01:13:59.773Z,75.17
2022-10-13T01:16:43.067Z,75.45
2022-10-13T01:19:33.549Z,75.68
2022-10-13T01:22:15.205Z,76.23
2022-10-13T01:25:13.233Z,75.92
2022-10-13T01:28:19.932Z,75.42
2022-10-13T01:30:58.836Z,75.38
2022-10-13T01:33:46.428Z,75.27
2022-10-13T01:36:27.680Z,75.34
2022-10-13T01:39:27.354Z,75.35
2022-10-13T01:42:19.185Z,75.19
2022-10-13T01:44:53.211Z,75.19
2022-10-13T01:47:25.133Z,75.23
2022-10-13T01:49:56.464Z,75.18
2022-10-13T01:52:32.648Z,75.40
2022-10-13T01:55:06.700Z,75.43
2022-10-13T01:57:49.178Z,75.75
2022-10-13T02:00:39.990Z,75.80
2022-10-13T02:03:35.087Z,76.10
2022-10-13T02:06:15.663Z,75.87
2022-10-13T02:09:14.982Z,76.17
2022-10-13T02:11:49.970Z,76.24
2022-10-13T02:14:26.572Z,76.51
2022-10-13T02:17:10.418Z,76.43
2022-10-13T02:19:40.580Z,76.25
2022-10-13T02:22:28.662Z,76.42
2022-10-13T02:24:57.969Z,76.91
2022-10-13T02:27:27.210Z,76.48
2022-10-13T02:29:58.135Z,76.33
2022-10-13T02:32:31.464Z,76.44
2022-10-13T02:35:14.329Z,76.29
2022-10-13T02:37:43.306Z,76.44
2022-10-13T02:40:13.552Z,76.55
2022-10-13T02:42:42.462Z,76.56
2022-10-13T02:45:11.563Z,76.41
2022-10-13T02:47:41.042Z,76.57
2022-10-13T02:50:10.545Z,76.49
2022-10-13T02:52:39.469Z,76.49
2022-10-13T02:55:22.001Z,76.62
2022-10-13T02:57:56.149Z,76.56
2022-10-13T03:00:26.002Z,76.60
2022-10-13T03:03:08.546Z,76.54
2022-10-13T03:05:37.383Z,76.70
2022-10-13T03:08:06.314Z,76.99
2022-10-13T03:10:48.743Z,76.97
2022-10-13T03:13:17.335Z,76.99
2022-10-13T03:15:47.861Z,77.34
2022-10-13T03:18:30.667Z,77.28
2022-10-13T03:21:02.888Z,77.35
2022-10-13T03:23:45.343Z,77.38
2022-10-13T03:26:27.939Z,77.36
2022-10-13T03:28:57.258Z,77.56
2022-10-13T03:31:25.983Z,77.58
2022-10-13T03:33:59.540Z,77.66
2022-10-13T03:36:42.575Z,77.76
2022-10-13T03:39:25.271Z,77.60
2022-10-13T03:42:07.811Z,77.67
2022-10-13T03:44:38.260Z,77.67
2022-10-13T03:47:21.122Z,77.80
2022-10-13T03:49:50.814Z,77.85
2022-10-13T03:52:20.001Z,77.75
2022-10-13T03:54:50.060Z,77.84
2022-10-13T03:57:18.886Z,77.84
2022-10-13T03:59:47.745Z,78.02
2022-10-13T04:02:16.511Z,77.90
2022-10-13T04:04:45.183Z,78.14
2022-10-13T04:07:14.026Z,78.01
2022-10-13T04:09:56.906Z,78.01
2022-10-13T04:12:26.315Z,78.11
2022-10-13T04:15:09.881Z,78.35
2022-10-13T04:17:52.580Z,78.15
2022-10-13T04:20:21.302Z,78.04
2022-10-13T04:23:03.810Z,78.07
2022-10-13T04:25:36.826Z,78.02
2022-10-13T04:28:19.406Z,78.08
2022-10-13T04:30:49.732Z,78.42
2022-10-13T04:33:19.306Z,78.05
2022-10-13T04:35:48.167Z,78.05
2022-10-13T04:38:17.130Z,78.27
2022-10-13T04:40:46.062Z,78.57
2022-10-13T04:43:29.040Z,78.31
2022-10-13T04:46:06.145Z,78.52
2022-10-13T04:48:49.009Z,78.54
2022-10-13T04:51:20.776Z,78.56
2022-10-13T04:54:05.782Z,78.53
2022-10-13T04:56:34.712Z,78.54
2022-10-13T04:59:06.145Z,78.89
2022-10-13T05:01:36.255Z,78.88
2022-10-13T05:04:09.946Z,79.05
2022-10-13T05:07:16.608Z,78.78
2022-10-13T05:09:42.571Z,78.73
2022-10-13T05:12:26.708Z,79.07
2022-10-13T05:14:55.786Z,78.89
2022-10-13T05:17:24.825Z,79.02
2022-10-13T05:19:53.840Z,78.95
2022-10-13T05:22:22.735Z,79.03
2022-10-13T05:24:51.675Z,79.10
2022-10-13T05:27:34.382Z,78.77
2022-10-13T05:30:19.917Z,78.86
2022-10-13T05:32:53.019Z,79.30
2022-10-13T05:35:23.495Z,79.11
2022-10-13T05:37:52.432Z,78.97
2022-10-13T05:40:24.630Z,79.04
2022-10-13T05:43:10.914Z,79.20
2022-10-13T05:45:41.396Z,79.15
2022-10-13T05:48:23.794Z,79.13
2022-10-13T05:51:20.104Z,79.40
2022-10-13T05:54:20.556Z,79.25
2022-10-13T05:56:57.721Z,79.18
2022-10-13T05:59:29.264Z,79.45
2022-10-13T06:02:15.352Z,79.28
2022-10-13T06:04:51.518Z,79.25
2022-10-13T06:07:21.255Z,79.35
2022-10-13T06:09:50.499Z,79.36
2022-10-13T06:12:20.131Z,79.41
2022-10-13T06:14:49.241Z,79.36
2022-10-13T06:17:31.830Z,79.49
2022-10-13T06:20:14.257Z,79.27
2022-10-13T06:22:57.224Z,79.42
2022-10-13T06:25:26.191Z,79.48
2022-10-13T06:28:08.546Z,79.35
2022-10-13T06:30:38.935Z,79.39
2022-10-13T06:33:07.831Z,79.49
2022-10-13T06:35:37.032Z,79.51
2022-10-13T06:38:05.866Z,79.37
2022-10-13T06:40:35.349Z,79.38
2022-10-13T06:43:17.822Z,79.32
2022-10-13T06:45:46.976Z,79.21
2022-10-13T06:48:29.672Z,79.15
2022-10-13T06:51:13.063Z,79.25
2022-10-13T06:53:41.636Z,79.32
2022-10-13T06:56:24.683Z,79.36
2022-10-13T06:59:07.081Z,79.33
2022-10-13T07:01:52.477Z,79.26
2022-10-13T07:04:23.421Z,79.37
2022-10-13T07:07:06.007Z,79.30
2022-10-13T07:09:34.704Z,79.12
2022-10-13T07:12:04.130Z,79.23
2022-10-13T07:14:33.113Z,79.24
2022-10-13T07:17:01.887Z,79.11
2022-10-13T07:19:31.172Z,79.06
2022-10-13T07:22:13.821Z,79.30
2022-10-13T07:24:43.181Z,79.25
2022-10-13T07:27:12.238Z,79.39
2022-10-13T07:29:54.584Z,79.42
2022-10-13T07:32:23.649Z,79.32
2022-10-13T07:35:06.628Z,79.35
2022-10-13T07:37:36.198Z,79.43
2022-10-13T07:40:06.496Z,79.45
2022-10-13T07:42:35.760Z,79.23
2022-10-13T07:45:05.499Z,79.35
2022-10-13T07:47:34.402Z,79.36
2022-10-13T07:50:03.451Z,79.05
2022-10-13T07:52:32.368Z,79.24
2022-10-13T07:55:15.182Z,79.09
2022-10-13T07:57:43.916Z,79.08
2022-10-13T08:00:13.141Z,78.93
2022-10-13T08:02:56.366Z,78.62
2022-10-13T08:05:39.548Z,78.72
2022-10-13T08:08:22.944Z,78.50
2022-10-13T08:11:08.113Z,78.48
2022-10-13T08:13:36.949Z,78.50
2022-10-13T08:16:15.075Z,78.43
2022-10-13T08:19:00.706Z,78.22
2022-10-13T08:21:56.777Z,77.74
2022-10-13T08:24:19.766Z,77.85
2022-10-13T08:26:50.153Z,77.68
2022-10-13T08:29:23.473Z,77.51
2022-10-13T08:32:06.607Z,77.45
2022-10-13T08:34:37.602Z,77.48
2022-10-13T08:37:06.377Z,76.75
2022-10-13T08:39:35.104Z,76.78
2022-10-13T08:42:03.861Z,76.62
2022-10-13T08:45:15.770Z,76.56
2022-10-13T08:47:57.154Z,76.15
2022-10-13T08:50:30.600Z,76.21
2022-10-13T08:53:23.498Z,75.91
2022-10-13T08:55:58.032Z,76.06
2022-10-13T08:58:34.434Z,75.78
2022-10-13T09:01:09.426Z,75.68
2022-10-13T09:04:33.358Z,75.59
2022-10-13T09:07:14.051Z,75.23
2022-10-13T09:09:56.811Z,75.00
2022-10-13T09:12:26.642Z,74.68
2022-10-13T09:15:06.336Z,74.61
2022-10-13T09:17:37.459Z,74.53
2022-10-13T09:20:25.621Z,74.36
2022-10-13T09:23:21.565Z,73.90
2022-10-13T09:25:52.795Z,74.08
2022-10-13T09:28:32.909Z,73.94
2022-10-13T09:31:19.228Z,73.46
2022-10-13T09:34:12.552Z,73.46
2022-10-13T09:36:59.305Z,73.45
2022-10-13T09:39:28.531Z,73.15
2022-10-13T09:42:32.177Z,73.22
2022-10-13T09:45:15.849Z,72.88
2022-10-13T09:48:03.391Z,72.76
2022-10-13T09:50:52.125Z,72.52
2022-10-13T09:53:41.076Z,72.14
2022-10-13T09:56:34.354Z,71.77
2022-10-13T09:59:03.112Z,71.41
2022-10-13T10:01:39.238Z,71.39
2022-10-13T10:04:30.211Z,71.01
2022-10-13T10:06:59.993Z,71.23
2022-10-13T10:09:51.983Z,70.99
2022-10-13T10:12:27.676Z,70.76
2022-10-13T10:14:57.496Z,70.63
2022-10-13T10:18:11.222Z,69.89
2022-10-13T10:20:49.131Z,69.70
2022-10-13T10:23:40.301Z,69.65
2022-10-13T10:26:36.483Z,69.47
2022-10-13T10:29:15.829Z,69.30
2022-10-13T10:32:21.737Z,69.09
2022-10-13T10:35:00.259Z,68.87
2022-10-13T10:38:12.710Z,68.36
2022-10-13T10:41:08.300Z,68.08
2022-10-13T10:44:30.354Z,68.06
2022-10-13T10:47:26.011Z,67.73
2022-10-13T10:50:07.534Z,67.16
2022-10-13T10:52:59.491Z,66.93
2022-10-13T10:55:38.654Z,66.70
2022-10-13T10:58:38.908Z,66.65
2022-10-13T11:02:05.241Z,66.54
2022-10-13T11:04:50.200Z,66.01
2022-10-13T11:07:32.574Z,66.01
2022-10-13T11:10:05.171Z,65.98
2022-10-13T11:12:54.449Z,66.11
2022-10-13T11:15:31.326Z,65.59
2022-10-13T11:18:51.538Z,65.22
2022-10-13T11:21:21.770Z,65.19
2022-10-13T11:24:04.224Z,64.68
2022-10-13T11:26:42.417Z,64.63
2022-10-13T11:29:51.979Z,64.42
2022-10-13T11:32:34.427Z,64.01
2022-10-13T11:35:28.495Z,63.37
2022-10-13T11:38:37.746Z,63.26
2022-10-13T11:41:24.945Z,63.36
2022-10-13T11:44:06.995Z,62.82
2022-10-13T11:46:57.251Z,62.57
2022-10-13T11:49:50.038Z,62.83
2022-10-13T11:52:58.897Z,62.93
2022-10-13T11:55:45.039Z,62.90
2022-10-13T11:58:35.528Z,62.07
2022-10-13T12:01:12.464Z,62.25
2022-10-13T12:03:44.796Z,62.37
2022-10-13T12:06:16.561Z,62.42
2022-10-13T12:08:50.756Z,62.55
2022-10-13T12:11:46.617Z,62.32
2022-10-13T12:17:39.350Z,61.98
2022-10-13T12:20:24.671Z,61.92
2022-10-13T12:22:54.979Z,61.50
2022-10-13T12:25:29.940Z,61.08
2022-10-13T12:28:20.085Z,61.14
2022-10-13T12:30:55.808Z,60.65
2022-10-13T12:33:39.149Z,60.59
2022-10-13T12:36:30.130Z,60.47
2022-10-13T12:39:03.897Z,60.18
2022-10-13T12:41:48.331Z,60.36
2022-10-13T12:44:22.324Z,60.34
2022-10-13T12:47:05.567Z,60.16
2022-10-13T12:49:36.617Z,59.93
2022-10-13T12:52:15.165Z,60.13
2022-10-13T12:54:59.990Z,59.83
2022-10-13T12:57:46.546Z,59.03
2022-10-13T13:00:26.935Z,59.38
2022-10-13T13:03:06.042Z,59.48
2022-10-13T13:05:51.965Z,59.22
2022-10-13T13:08:32.045Z,59.17
2022-10-13T13:11:24.942Z,59.15
2022-10-13T13:14:43.531Z,58.70
2022-10-13T13:17:56.533Z,58.44
2022-10-13T13:20:38.118Z,58.46
2022-10-13T13:23:06.953Z,58.30
2022-10-13T13:25:35.835Z,58.69
2022-10-13T13:28:13.066Z,58.59
2022-10-13T13:30:55.498Z,58.24
2022-10-13T13:33:24.459Z,58.14
2022-10-13T13:36:27.069Z,58.27
2022-10-13T13:39:16.466Z,58.14
2022-10-13T13:41:45.915Z,58.11
2022-10-13T13:44:15.418Z,58.21
2022-10-13T13:46:57.803Z,58.05
2022-10-13T13:49:26.904Z,58.00
2022-10-13T13:51:55.994Z,57.55
2022-10-13T13:54:25.089Z,57.47
2022-10-13T13:56:58.666Z,57.46
2022-10-13T13:59:28.488Z,57.35
2022-10-13T14:01:58.500Z,57.40
2022-10-13T14:04:28.553Z,57.44
2022-10-13T14:07:12.162Z,57.19
2022-10-13T14:09:40.937Z,56.97
2022-10-13T14:12:25.363Z,57.14
2022-10-13T14:15:08.453Z,57.22
2022-10-13T14:17:37.256Z,57.47
2022-10-13T14:20:06.976Z,57.28
2022-10-13T14:22:52.509Z,57.24
2022-10-13T14:25:21.506Z,57.31
2022-10-13T14:27:50.229Z,57.22
2022-10-13T14:30:19.103Z,57.14
2022-10-13T14:32:47.771Z,56.69
2022-10-13T14:35:16.764Z,56.69
2022-10-13T14:37:45.361Z,56.89
2022-10-13T14:40:14.777Z,56.99
2022-10-13T14:42:44.241Z,56.84
2022-10-13T14:45:18.478Z,56.77
2022-10-13T14:48:00.890Z,57.14
2022-10-13T14:50:30.809Z,56.92
2022-10-13T14:53:15.449Z,56.96
2022-10-13T14:55:45.890Z,56.84
2022-10-13T14:58:28.419Z,57.06
2022-10-13T15:01:10.695Z,56.97
2022-10-13T15:03:39.578Z,57.02
2022-10-13T15:06:13.525Z,57.20
2022-10-13T15:08:43.221Z,57.09
2022-10-13T15:11:26.979Z,57.17
2022-10-13T15:14:10.041Z,57.16
2022-10-13T15:16:38.949Z,57.05
2022-10-13T15:19:07.831Z,57.18
2022-10-13T15:21:50.884Z,57.10
2022-10-13T15:24:33.317Z,57.02
2022-10-13T15:27:04.017Z,57.18
2022-10-13T15:29:33.872Z,57.07
2022-10-13T15:32:11.433Z,57.04
2022-10-13T15:34:40.234Z,57.17
2022-10-13T15:37:22.649Z,57.27
2022-10-13T15:39:56.939Z,57.43
2022-10-13T15:42:26.394Z,57.41
2022-10-13T15:45:11.678Z,57.52
2022-10-13T15:47:41.004Z,57.75
2022-10-13T15:50:09.909Z,57.95
2022-10-13T15:52:53.211Z,57.99
2022-10-13T15:55:21.761Z,58.21
2022-10-13T15:58:04.087Z,58.28
2022-10-13T16:00:46.922Z,58.28
2022-10-13T16:03:17.837Z,58.43
2022-10-13T16:05:47.166Z,58.65
2022-10-13T16:08:29.491Z,58.70
2022-10-13T16:10:57.871Z,58.61
2022-10-13T16:13:26.396Z,59.01
2022-10-13T16:15:59.848Z,59.00
2022-10-13T16:18:30.192Z,58.97
2022-10-13T16:20:58.826Z,59.09
2022-10-13T16:23:41.242Z,58.84
2022-10-13T16:26:10.853Z,59.32
2022-10-13T16:28:39.765Z,59.25
2022-10-13T16:31:14.287Z,59.23
2022-10-13T16:33:45.738Z,59.47
2022-10-13T16:36:28.445Z,59.85
2022-10-13T16:38:57.017Z,60.06
2022-10-13T16:41:39.452Z,59.86
2022-10-13T16:44:08.104Z,59.90
2022-10-13T16:46:52.435Z,60.06
2022-10-13T16:49:35.236Z,59.91
2022-10-13T16:52:03.881Z,60.09
2022-10-13T16:54:33.314Z,60.47
2022-10-13T16:57:02.485Z,59.99
2022-10-13T16:59:31.069Z,60.13
2022-10-13T17:01:59.725Z,60.39
2022-10-13T17:04:29.355Z,60.44
2022-10-13T17:06:57.912Z,60.52
2022-10-13T17:09:26.662Z,60.64
2022-10-13T17:11:56.854Z,60.75
2022-10-13T17:14:25.902Z,61.04
2022-10-13T17:16:57.773Z,60.64
2022-10-13T17:19:26.906Z,60.73
2022-10-13T17:21:55.283Z,61.19
2022-10-13T17:24:24.283Z,61.14
2022-10-13T17:27:07.036Z,61.23
2022-10-13T17:29:43.979Z,61.42
2022-10-13T17:32:13.559Z,61.29
2022-10-13T17:34:57.149Z,61.21
2022-10-13T17:37:26.659Z,61.63
2022-10-13T17:40:09.478Z,61.72
2022-10-13T17:42:39.187Z,61.74
2022-10-13T17:45:21.649Z,61.70
2022-10-13T17:48:03.974Z,61.83
2022-10-13T17:50:36.077Z,62.17
2022-10-13T17:53:18.717Z,62.16
2022-10-13T17:56:02.274Z,61.85
2022-10-13T17:58:31.484Z,62.05
2022-10-13T18:01:12.805Z,62.09
2022-10-13T18:03:51.719Z,62.37
2022-10-13T18:06:22.464Z,62.26
2022-10-13T18:08:51.975Z,62.44
2022-10-13T18:11:23.014Z,62.71
2022-10-13T18:13:53.262Z,62.72
2022-10-13T18:16:36.024Z,62.94
2022-10-13T18:19:19.640Z,62.92
2022-10-13T18:21:48.871Z,62.88
2022-10-13T18:24:17.582Z,62.97
2022-10-13T18:26:46.766Z,63.00
2022-10-13T18:29:15.302Z,63.19
2022-10-13T18:31:44.370Z,63.10
2022-10-13T18:34:15.572Z,63.25
2022-10-13T18:36:50.557Z,63.41
2022-10-13T18:39:25.813Z,63.53
2022-10-13T18:41:55.977Z,63.58
2022-10-13T18:44:41.349Z,63.72
2022-10-13T18:47:10.024Z,63.77
2022-10-13T18:49:38.745Z,63.64
2022-10-13T18:52:07.560Z,63.83
2022-10-13T18:54:38.306Z,64.01
2022-10-13T18:57:06.875Z,63.93
2022-10-13T18:59:38.887Z,64.05
2022-10-13T19:02:21.129Z,64.19
2022-10-13T19:04:49.726Z,64.11
2022-10-13T19:07:18.559Z,64.09
2022-10-13T19:09:47.620Z,64.14
2022-10-13T19:12:16.719Z,64.16
2022-10-13T19:14:46.243Z,64.50
2022-10-13T19:17:14.949Z,64.61
2022-10-13T19:19:43.753Z,64.51
2022-10-13T19:22:13.349Z,64.69
2022-10-13T19:24:43.455Z,64.75
2022-10-13T19:27:12.924Z,64.77
2022-10-13T19:29:41.634Z,64.83
2022-10-13T19:32:10.239Z,64.75
2022-10-13T19:34:38.812Z,64.75
2022-10-13T19:37:21.858Z,64.82
2022-10-13T19:39:50.753Z,64.83
2022-10-13T19:42:19.608Z,65.06
2022-10-13T19:45:03.949Z,65.16
2022-10-13T19:47:33.419Z,65.06
2022-10-13T19:50:02.453Z,65.18
2022-10-13T19:52:31.189Z,65.12
2022-10-13T19:55:01.507Z,65.25
2022-10-13T19:57:30.753Z,65.36
2022-10-13T19:59:59.150Z,65.39
2022-10-13T20:02:28.245Z,65.51
2022-10-13T20:04:57.337Z,65.64
2022-10-13T20:07:25.882Z,65.41
2022-10-13T20:09:54.855Z,65.48
2022-10-13T20:12:24.260Z,65.71
2022-10-13T20:14:53.269Z,65.67
2022-10-13T20:17:22.758Z,65.82
2022-10-13T20:19:53.059Z,65.83
2022-10-13T20:22:22.258Z,65.75
2022-10-13T20:24:50.895Z,65.93
2022-10-13T20:27:19.861Z,66.03
2022-10-13T20:29:48.724Z,65.96
2022-10-13T20:32:17.660Z,65.97
2022-10-13T20:34:47.049Z,66.14
2022-10-13T20:37:29.361Z,66.13
2022-10-13T20:39:58.441Z,66.06
2022-10-13T20:42:27.290Z,66.25
2022-10-13T20:45:10.579Z,66.25
2022-10-13T20:47:39.094Z,66.52
2022-10-13T20:50:08.690Z,66.40
2022-10-13T20:52:38.495Z,66.43
2022-10-13T20:55:07.476Z,66.46
2022-10-13T20:57:38.452Z,66.68
2022-10-13T21:00:07.723Z,66.68
2022-10-13T21:02:50.024Z,66.89
2022-10-13T21:05:19.226Z,66.74
2022-10-13T21:08:01.729Z,66.84
2022-10-13T21:10:32.547Z,66.75
2022-10-13T21:13:01.453Z,66.90
2022-10-13T21:15:32.147Z,66.96
2022-10-13T21:21:43.534Z,66.72
2022-10-13T21:24:12.561Z,67.07
2022-10-13T21:26:54.788Z,67.07
2022-10-13T21:29:24.440Z,67.07
2022-10-13T21:31:53.179Z,67.22
2022-10-13T21:34:21.907Z,67.07
2022-10-13T21:37:04.463Z,67.23
2022-10-13T21:39:48.808Z,67.29
2022-10-13T21:42:17.475Z,67.50
2022-10-13T21:45:00.254Z,67.46
2022-10-13T21:47:42.525Z,67.42
2022-10-13T21:50:11.681Z,67.57
2022-10-13T21:52:53.926Z,67.72
2022-10-13T21:55:25.869Z,67.78
2022-10-13T21:57:54.759Z,67.74
2022-10-13T22:00:23.691Z,67.89
2022-10-13T22:03:07.451Z,67.88
2022-10-13T22:05:49.829Z,67.89
2022-10-13T22:08:18.508Z,67.96
2022-10-13T22:11:00.790Z,68.04
2022-10-13T22:13:43.401Z,68.08
2022-10-13T22:16:30.589Z,68.12
2022-10-13T22:19:14.516Z,68.31
2022-10-13T22:21:46.385Z,68.33
2022-10-13T22:24:18.510Z,68.46
2022-10-13T22:26:49.460Z,68.37
2022-10-13T22:29:21.977Z,68.57
2022-10-13T22:32:04.651Z,68.71
2022-10-13T22:34:47.005Z,68.56
2022-10-13T22:37:15.573Z,68.88
2022-10-13T22:39:57.994Z,68.80
2022-10-13T22:42:26.911Z,68.94
2022-10-13T22:44:55.731Z,69.11
2022-10-13T22:47:26.195Z,68.90
2022-10-13T22:50:08.951Z,69.23
2022-10-13T22:52:37.942Z,69.19
2022-10-13T22:55:07.794Z,69.37
2022-10-13T22:57:50.235Z,69.22
2022-10-13T23:00:19.159Z,69.69
2022-10-13T23:03:02.478Z,69.68
2022-10-13T23:05:49.212Z,69.44
2022-10-13T23:08:18.923Z,69.52
2022-10-13T23:10:47.901Z,69.78
2022-10-13T23:13:17.088Z,69.73
2022-10-13T23:16:08.111Z,69.73
2022-10-13T23:18:40.314Z,69.94
2022-10-13T23:21:15.741Z,70.05
2022-10-13T23:23:45.228Z,69.97
2022-10-13T23:26:29.386Z,70.06
2022-10-13T23:28:59.522Z,70.12
2022-10-13T23:31:29.555Z,69.90
2022-10-13T23:34:12.055Z,70.19
2022-10-13T23:36:54.415Z,70.07
2022-10-13T23:39:23.313Z,70.27
2022-10-13T23:41:52.363Z,70.18
2022-10-13T23:44:35.243Z,70.27
2022-10-13T23:47:04.314Z,70.27
2022-10-13T23:49:33.313Z,70.41
2022-10-13T23:52:02.045Z,70.38
2022-10-13T23:54:44.564Z,70.43
2022-10-13T23:57:26.961Z,70.32
2022-10-13T23:59:56.125Z,70.64
